Ever Develop — 3FLF8 — position and weather

sailwx.info

Track history (hours):
 
Tides and Currents Weather Stations Pressure Air Temp Water Temp Dewpoint Dewpoint Depression Visibility Wind Speed Wind Dir Waves Ship Positions

Ever Develop

Last reported at 2014-Aug-22 00:26 UTC. Time now 2014-Aug-29 01:33 UTC.
Position N 37°18' W 073°60'.

Type: Ship (hazmat cat D). MMSI: 356391000.

Date/timePositionNaut miles runAvg speedWind from/ knotsBaromVisibWave heightAir tempDewpointWater temp
2014-Aug-22 00:26N 37°18' W 073°60'1315.0
2014-Aug-21 23:33N 37°31' W 073°59'1514.2
2014-Aug-21 22:29N 37°46' W 073°58'1313.6
2014-Aug-21 21:33N 37°59' W 073°57'1414.1
2014-Aug-21 20:33N 38°13' W 073°56'1414.1
2014-Aug-21 19:33N 38°27' W 073°56'1414.5
2014-Aug-21 18:34N 38°42' W 073°55'1414.4
2014-Aug-21 17:33N 38°56' W 073°55'1514.6
2014-Aug-21 16:33N 39°11' W 073°54'1514.7
2014-Aug-21 15:33N 39°25' W 073°53'1414.5
2014-Aug-21 14:33N 39°40' W 073°52'1414.4
2014-Aug-21 13:33N 39°54' W 073°51'1514.6
2014-Aug-21 12:32N 40°09' W 073°50'1414.5
2014-Aug-21 11:33N 40°23' W 073°48'1211.6
2014-Aug-21 10:33N 40°31' W 073°60'9 9.4
2014-Aug-21 09:33N 40°39' W 074°07'3 2.7
2014-Aug-21 08:33N 40°41' W 074°09'0 0.1
2014-Aug-21 07:32N 40°41' W 074°09'0 0.0
2014-Aug-21 06:32N 40°41' W 074°09'0 0.0
2014-Aug-21 05:32N 40°41' W 074°09'0 0.0
2014-Aug-21 04:29N 40°41' W 074°09'0 0.0
2014-Aug-21 03:29N 40°41' W 074°09'0 0.0
2014-Aug-21 02:32N 40°41' W 074°09'0 0.0
2014-Aug-21 01:29N 40°41' W 074°09'0 0.0
2014-Aug-21 00:32N 40°41' W 074°09'0 0.0
2014-Aug-20 21:26N 40°41' W 074°09'0 0.0
2014-Aug-20 19:32N 40°41' W 074°09'0 0.0
2014-Aug-20 18:20N 40°41' W 074°09'0 0.0
2014-Aug-20 17:32N 40°41' W 074°09'0 0.0
2014-Aug-20 16:32N 40°41' W 074°09'0 0.0
2014-Aug-20 15:32N 40°41' W 074°09'1 1.2
2014-Aug-20 14:33N 40°40' W 074°08'4 4.2
2014-Aug-20 13:33N 40°38' W 074°03'9 9.1
2014-Aug-20 12:33N 40°30' W 073°57'1010.4
2014-Aug-20 11:33N 40°23' W 073°47'8 7.8
2014-Aug-20 10:33N 40°16' W 073°45'1514.9
2014-Aug-20 09:33N 40°01' W 073°43'1515.1
2014-Aug-20 08:33N 39°46' W 073°41'1515.0
2014-Aug-20 07:33N 39°32' W 073°48'1515.0
2014-Aug-20 06:33N 39°18' W 073°55'1514.7
2014-Aug-20 05:33N 39°04' W 074°01'1414.5
2014-Aug-20 04:33N 38°51' W 074°09'1515.0
2014-Aug-20 03:33N 38°38' W 074°19'1515.0
2014-Aug-20 02:33N 38°25' W 074°29'1514.9
2014-Aug-20 01:31N 38°12' W 074°38'4314.0
2014-Aug-19 22:28N 37°33' W 075°01'38 6.3
2014-Aug-19 16:29N 37°02' W 075°29'1313.7
2014-Aug-19 15:33N 36°52' W 075°39'1311.9
2014-Aug-19 14:30N 36°54' W 075°55'1415.0
2014-Aug-19 13:33N 36°60' W 076°11'10 9.2
2014-Aug-19 12:28N 36°53' W 076°20'1 0.1
2014-Aug-19 07:23N 36°53' W 076°21'0 0.0
2014-Aug-19 06:32N 36°53' W 076°21'0 0.0
2014-Aug-19 05:29N 36°53' W 076°21'0 0.0
2014-Aug-19 04:32N 36°53' W 076°21'0 0.0
2014-Aug-19 03:08N 36°53' W 076°21'0 0.0
2014-Aug-19 01:23N 36°53' W 076°21'0 0.0
2014-Aug-19 00:11N 36°53' W 076°21'1 1.6
2014-Aug-18 23:33N 36°53' W 076°20'9 8.5
2014-Aug-18 22:33N 37°01' W 076°14'1110.9
2014-Aug-18 21:33N 36°60' W 076°01'1515.0
2014-Aug-18 20:33N 37°13' W 076°09'9418.5
2014-Aug-18 15:29N 38°46' W 076°26'1616.7
2014-Aug-18 14:33N 39°01' W 076°22'1111.0
2014-Aug-18 13:33N 39°11' W 076°28'6 5.7
2014-Aug-18 12:33N 39°15' W 076°33'0 0.0
2014-Aug-18 11:32N 39°15' W 076°33'0 0.0
2014-Aug-18 10:32N 39°15' W 076°33'0 0.0
2014-Aug-18 09:29N 39°15' W 076°33'0 0.0
2014-Aug-18 08:32N 39°15' W 076°33'0 0.0
2014-Aug-18 07:32N 39°15' W 076°33'0 0.0
2014-Aug-18 06:32N 39°15' W 076°33'0 0.0
2014-Aug-18 05:32N 39°15' W 076°33'0 0.0
2014-Aug-18 04:32N 39°15' W 076°33'0 0.0
2014-Aug-18 03:32N 39°15' W 076°33'0 0.0
2014-Aug-18 02:32N 39°15' W 076°33'0 0.0
2014-Aug-18 01:32N 39°15' W 076°33'0 0.0
2014-Aug-18 00:29N 39°15' W 076°33'28 4.8
2014-Aug-17 18:33N 38°47' W 076°25'3919.0
2014-Aug-17 16:30N 38°09' W 076°14'1819.0
2014-Aug-17 15:33N 37°52' W 076°09'2017.1
2014-Aug-17 14:23N 37°33' W 076°02'1416.5
2014-Aug-17 13:33N 37°19' W 076°06'1515.3
2014-Aug-17 12:33N 37°04' W 076°05'1312.7
2014-Aug-17 11:33N 36°55' W 075°54'9 8.9
2014-Aug-17 10:33N 36°49' W 075°45'1615.9
2014-Aug-17 09:33N 36°37' W 075°32'14015.4
2014-Aug-17 00:28N 34°17' W 075°35'2322.4
2014-Aug-16 23:27N 34°04' W 075°57'  
Track history (hours):
 
Tides and Currents Weather Stations Pressure Air Temp Water Temp Dewpoint Dewpoint Depression Visibility Wind Speed Wind Dir Waves Ship Positions

Ever Develop

Last reported at 2014-Aug-22 00:26 UTC. Time now 2014-Aug-29 01:33 UTC.
Position N 37°18' W 073°60'.

Type: Ship (hazmat cat D). MMSI: 356391000.

Date/timePositionNaut miles runAvg speedWind from/ knotsBaromVisibWave heightAir tempDewpointWater temp
2014-Aug-22 00:26N 37°18' W 073°60'1315.0
2014-Aug-21 23:33N 37°31' W 073°59'1514.2
2014-Aug-21 22:29N 37°46' W 073°58'1313.6
2014-Aug-21 21:33N 37°59' W 073°57'1414.1
2014-Aug-21 20:33N 38°13' W 073°56'1414.1
2014-Aug-21 19:33N 38°27' W 073°56'1414.5
2014-Aug-21 18:34N 38°42' W 073°55'1414.4
2014-Aug-21 17:33N 38°56' W 073°55'1514.6
2014-Aug-21 16:33N 39°11' W 073°54'1514.7
2014-Aug-21 15:33N 39°25' W 073°53'1414.5
2014-Aug-21 14:33N 39°40' W 073°52'1414.4
2014-Aug-21 13:33N 39°54' W 073°51'1514.6
2014-Aug-21 12:32N 40°09' W 073°50'1414.5
2014-Aug-21 11:33N 40°23' W 073°48'1211.6
2014-Aug-21 10:33N 40°31' W 073°60'9 9.4
2014-Aug-21 09:33N 40°39' W 074°07'3 2.7
2014-Aug-21 08:33N 40°41' W 074°09'0 0.1
2014-Aug-21 07:32N 40°41' W 074°09'0 0.0
2014-Aug-21 06:32N 40°41' W 074°09'0 0.0
2014-Aug-21 05:32N 40°41' W 074°09'0 0.0
2014-Aug-21 04:29N 40°41' W 074°09'0 0.0
2014-Aug-21 03:29N 40°41' W 074°09'0 0.0
2014-Aug-21 02:32N 40°41' W 074°09'0 0.0
2014-Aug-21 01:29N 40°41' W 074°09'0 0.0
2014-Aug-21 00:32N 40°41' W 074°09'0 0.0
2014-Aug-20 21:26N 40°41' W 074°09'0 0.0
2014-Aug-20 19:32N 40°41' W 074°09'0 0.0
2014-Aug-20 18:20N 40°41' W 074°09'0 0.0
2014-Aug-20 17:32N 40°41' W 074°09'0 0.0
2014-Aug-20 16:32N 40°41' W 074°09'0 0.0
2014-Aug-20 15:32N 40°41' W 074°09'1 1.2
2014-Aug-20 14:33N 40°40' W 074°08'4 4.2
2014-Aug-20 13:33N 40°38' W 074°03'9 9.1
2014-Aug-20 12:33N 40°30' W 073°57'1010.4
2014-Aug-20 11:33N 40°23' W 073°47'8 7.8
2014-Aug-20 10:33N 40°16' W 073°45'1514.9
2014-Aug-20 09:33N 40°01' W 073°43'1515.1
2014-Aug-20 08:33N 39°46' W 073°41'1515.0
2014-Aug-20 07:33N 39°32' W 073°48'1515.0
2014-Aug-20 06:33N 39°18' W 073°55'1514.7
2014-Aug-20 05:33N 39°04' W 074°01'1414.5
2014-Aug-20 04:33N 38°51' W 074°09'1515.0
2014-Aug-20 03:33N 38°38' W 074°19'1515.0
2014-Aug-20 02:33N 38°25' W 074°29'1514.9
2014-Aug-20 01:31N 38°12' W 074°38'4314.0
2014-Aug-19 22:28N 37°33' W 075°01'38 6.3
2014-Aug-19 16:29N 37°02' W 075°29'1313.7
2014-Aug-19 15:33N 36°52' W 075°39'1311.9
2014-Aug-19 14:30N 36°54' W 075°55'1415.0
2014-Aug-19 13:33N 36°60' W 076°11'10 9.2
2014-Aug-19 12:28N 36°53' W 076°20'1 0.1
2014-Aug-19 07:23N 36°53' W 076°21'0 0.0
2014-Aug-19 06:32N 36°53' W 076°21'0 0.0
2014-Aug-19 05:29N 36°53' W 076°21'0 0.0
2014-Aug-19 04:32N 36°53' W 076°21'0 0.0
2014-Aug-19 03:08N 36°53' W 076°21'0 0.0
2014-Aug-19 01:23N 36°53' W 076°21'0 0.0
2014-Aug-19 00:11N 36°53' W 076°21'1 1.6
2014-Aug-18 23:33N 36°53' W 076°20'9 8.5
2014-Aug-18 22:33N 37°01' W 076°14'1110.9
2014-Aug-18 21:33N 36°60' W 076°01'1515.0
2014-Aug-18 20:33N 37°13' W 076°09'9418.5
2014-Aug-18 15:29N 38°46' W 076°26'1616.7
2014-Aug-18 14:33N 39°01' W 076°22'1111.0
2014-Aug-18 13:33N 39°11' W 076°28'6 5.7
2014-Aug-18 12:33N 39°15' W 076°33'0 0.0
2014-Aug-18 11:32N 39°15' W 076°33'0 0.0
2014-Aug-18 10:32N 39°15' W 076°33'0 0.0
2014-Aug-18 09:29N 39°15' W 076°33'0 0.0
2014-Aug-18 08:32N 39°15' W 076°33'0 0.0
2014-Aug-18 07:32N 39°15' W 076°33'0 0.0
2014-Aug-18 06:32N 39°15' W 076°33'0 0.0
2014-Aug-18 05:32N 39°15' W 076°33'0 0.0
2014-Aug-18 04:32N 39°15' W 076°33'0 0.0
2014-Aug-18 03:32N 39°15' W 076°33'0 0.0
2014-Aug-18 02:32N 39°15' W 076°33'0 0.0
2014-Aug-18 01:32N 39°15' W 076°33'0 0.0
2014-Aug-18 00:29N 39°15' W 076°33'28 4.8
2014-Aug-17 18:33N 38°47' W 076°25'3919.0
2014-Aug-17 16:30N 38°09' W 076°14'1819.0
2014-Aug-17 15:33N 37°52' W 076°09'2017.1
2014-Aug-17 14:23N 37°33' W 076°02'1416.5
2014-Aug-17 13:33N 37°19' W 076°06'1515.3
2014-Aug-17 12:33N 37°04' W 076°05'1312.7
2014-Aug-17 11:33N 36°55' W 075°54'9 8.9
2014-Aug-17 10:33N 36°49' W 075°45'1615.9
2014-Aug-17 09:33N 36°37' W 075°32'14015.4
2014-Aug-17 00:28N 34°17' W 075°35'2322.4
2014-Aug-16 23:27N 34°04' W 075°57'  

Dump ship's entire track history